メインページ
METAR-TAF:

METAR-TAF

空港 :

ソフィア空港

ソフィア, ブルガリア

緯度: 42-39N, 経度: 023-23E, 海抜: 586m

現時点の気象観測

当レポートは17分前の10:00(UTC)に作成
の風 5kt、北/北東から南/南東の間で変化する
気温 27°C
湿度 48%
気圧 1018 hPa
視程10km以上
高度3500ftの雲はほとんどない, 積乱雲.
高度6000ftの雲は散在している
激しい雷雨, 小雨

METAR: LBSF 211000Z 09005KT 020V150 9999 -TSRA FEW035CB SCT060 27/15 Q1018 NOSIG

時間: 13:17 (10:17 UTC)

予報

当レポートは5時間17分前の05:00(UTC)に作成
予報は21日の 06時(UTC)から 22日の 06時(UTC)まで有効
変向風 4kt
視程10km以上
1,500メートル以下は雲なし、積乱雲なし
21日の 09時(UTC)から 21日の 11時(UTC)まで徐々に
の風 10kt
高度5000ftの雲は散在している
21日の 10時(UTC)から 21日の 17時(UTC)まで一時的に
視程: 5000m
高度3000ftの雲はほとんどない, 積乱雲.
高度4000ftの千切れ雲あり
激しい雷雨, 雨
21日の 19時(UTC)から 21日の 21時(UTC)まで徐々に
変向風 4kt

TAF: LBSF 210500Z 2106/2206 VRB04KT CAVOK BECMG 2109/2111 09010KT SCT050 TEMPO 2110/2117 5000 TSRA FEW030CB BKN040 BECMG 2119/2121 VRB04KT

4,000以上の空港の気象観測と天気予報(METAR報とTAF報)

利用可能な観測所は地図上に黄色い丸と赤い丸で示す。

丸の上にカーソルを重ねると観測所名を参照できる。

次にクリックすると気象観測と天気予報を参照できる。

マップの切り替え:黒色「×」印の緑ボタンをクリックして拡大、「-」印の緑ボタンをクリックして縮小、緑色の三角印をクリックして隣りの地図に切り替え


METAR-TAF: